Currently 40°F in Pinon Hills, California, USA
40°F
40°F / 30°F
2 mph E
0.00"
Sunday, December 17, 2017 9:27 AM PST

Pinon Hills, California Climate Summary
Typical August Day

Normal High:    90.8°F (32.6°C)
Normal Low:    66.0°F (18.9°C)
Average:    78.3°F (25.7°C)

Hour    Temperature    Wind Speed    Humidity
12:00 AM    72°F (22°C)    2 mph    33%
1:00 AM    71°F (21°C)    2 mph    34%
2:00 AM    70°F (21°C)    2 mph    34%
3:00 AM    69°F (21°C)    2 mph    34%
4:00 AM    69°F (20°C)    2 mph    35%
5:00 AM    68°F (20°C)    2 mph    35%
6:00 AM    68°F (20°C)    2 mph    35%
7:00 AM    70°F (21°C)    1 mph    33%
8:00 AM    77°F (25°C)    1 mph    27%
9:00 AM    80°F (27°C)    1 mph    24%
10:00 AM    82°F (28°C)    2 mph    22%
11:00 AM    84°F (29°C)    2 mph    20%
12:00 PM    86°F (30°C)    2 mph    18%
1:00 PM    88°F (31°C)    3 mph    17%
2:00 PM    89°F (31°C)    3 mph    16%
3:00 PM    89°F (32°C)    3 mph    16%
4:00 PM    89°F (32°C)    4 mph    16%
5:00 PM    88°F (31°C)    4 mph    17%
6:00 PM    86°F (30°C)    5 mph    19%
7:00 PM    83°F (28°C)    5 mph    22%
8:00 PM    79°F (26°C)    3 mph    25%
9:00 PM    77°F (25°C)    3 mph    27%
10:00 PM    74°F (23°C)    2 mph    30%
11:00 PM    73°F (23°C)    2 mph    32%
 

The Pinon Hills, California weather pages are a service of WeatherCurrents.
Copyright ©Sun Dec 17 09:27:58 PST 2017  WeatherCurrents. All rights reserved. - Submit questions and comments - Privacy Policy